Time;durP1;ratioP1;P1;durP2;ratioP2;P2;SDS_P1;SDS_P2;PMS_P1;PMS_P2;Temp;Humidity;BMP_temperature;BMP_pressure;BME280_temperature;BME280_humidity;BME280_pressure;Samples;Min_cycle;Max_cycle;Signal;HPM_P1;HPM_P2
2023/09/21 00:02:26;;;;;;;2.58;0.28;;;18.50;99.90;;;;;;5094502;28;20577;-74
2023/09/21 00:04:52;;;;;;;2.58;0.38;;;18.50;99.90;;;;;;5093987;28;20046;-74
2023/09/21 00:07:18;;;;;;;2.10;0.17;;;18.50;99.90;;;;;;5094183;28;20468;-74
2023/09/21 00:09:44;;;;;;;0.10;0.00;;;18.50;99.90;;;;;;5094743;28;20012;-74
2023/09/21 00:12:10;;;;;;;4.70;0.17;;;18.50;99.90;;;;;;5092772;28;20016;-74
2023/09/21 00:14:35;;;;;;;2.15;0.00;;;18.50;99.90;;;;;;5093430;28;20027;-74
2023/09/21 00:17:02;;;;;;;3.70;0.40;;;18.50;99.90;;;;;;5094530;28;20374;-74
2023/09/21 00:19:28;;;;;;;2.80;0.43;;;18.50;99.90;;;;;;5093937;28;20020;-74
2023/09/21 00:21:57;;;;;;;2.08;0.10;;;18.50;99.90;;;;;;5093936;28;20027;-74
2023/09/21 00:24:23;;;;;;;5.53;0.40;;;18.50;99.90;;;;;;5093737;28;20093;-74
2023/09/21 00:26:50;;;;;;;4.47;0.20;;;18.40;99.90;;;;;;5093844;28;20028;-75
2023/09/21 00:29:16;;;;;;;3.00;0.15;;;18.40;99.90;;;;;;5093920;28;20091;-74
2023/09/21 00:31:42;;;;;;;0.43;0.00;;;18.40;99.90;;;;;;5093994;28;20066;-75
2023/09/21 00:34:08;;;;;;;7.65;0.40;;;18.30;99.90;;;;;;5093741;28;20026;-75
2023/09/21 00:36:35;;;;;;;2.47;0.20;;;18.30;99.90;;;;;;5093976;28;20024;-74
2023/09/21 00:39:01;;;;;;;1.98;0.00;;;18.30;99.90;;;;;;5093725;28;20412;-74
2023/09/21 00:41:30;;;;;;;0.30;0.00;;;18.30;99.90;;;;;;5092353;28;20020;-74
2023/09/21 00:43:56;;;;;;;1.40;0.10;;;18.30;99.90;;;;;;5092135;28;20437;-74
2023/09/21 00:46:25;;;;;;;1.08;0.00;;;18.30;99.90;;;;;;5092249;28;20032;-74
2023/09/21 00:48:50;;;;;;;;;;;18.30;99.90;;;;;;5092617;28;20020;-74
2023/09/21 00:51:16;;;;;;;0.10;0.00;;;18.30;99.90;;;;;;5092231;28;19927;-74
2023/09/21 00:53:44;;;;;;;3.15;0.13;;;18.20;99.90;;;;;;5092206;28;20024;-74
2023/09/21 00:56:13;;;;;;;0.68;0.10;;;18.20;99.90;;;;;;5093597;28;20032;-75
2023/09/21 00:58:45;;;;;;;1.85;0.00;;;18.10;99.90;;;;;;5093310;28;20027;-74
2023/09/21 01:01:16;;;;;;;2.40;0.00;;;18.10;99.90;;;;;;5093422;28;20031;-74
2023/09/21 01:03:43;;;;;;;0.85;0.10;;;18.20;99.90;;;;;;5093130;28;20024;-74
2023/09/21 01:06:12;;;;;;;2.58;0.25;;;18.20;99.90;;;;;;5092060;28;20369;-74
2023/09/21 01:08:38;;;;;;;1.55;0.15;;;18.20;99.90;;;;;;5092031;28;20023;-74
2023/09/21 01:11:09;;;;;;;1.85;0.20;;;18.20;99.90;;;;;;5093306;28;20024;-74
2023/09/21 01:13:36;;;;;;;0.77;0.08;;;18.20;99.90;;;;;;5093349;28;20020;-74
2023/09/21 01:16:06;;;;;;;2.28;0.15;;;18.10;99.90;;;;;;5093210;28;20107;-74
2023/09/21 01:18:32;;;;;;;2.83;0.35;;;18.20;99.90;;;;;;5093267;28;20067;-74
2023/09/21 01:21:04;;;;;;;0.25;0.10;;;18.20;99.90;;;;;;5091943;28;20065;-74
2023/09/21 01:23:47;;;;;;;2.47;0.15;;;18.20;99.90;;;;;;5093160;28;20027;-74
2023/09/21 01:26:16;;;;;;;0.52;0.00;;;18.20;99.90;;;;;;5095286;28;20479;-74
2023/09/21 01:28:47;;;;;;;3.20;0.13;;;18.20;99.90;;;;;;5097734;28;20028;-74
2023/09/21 01:31:13;;;;;;;0.28;0.08;;;18.20;99.90;;;;;;5097778;28;20062;-74
2023/09/21 01:33:42;;;;;;;0.30;0.10;;;18.20;99.90;;;;;;5096057;28;20475;-74
2023/09/21 01:36:09;;;;;;;1.20;0.15;;;18.10;99.90;;;;;;5097380;28;20434;-74
2023/09/21 01:38:38;;;;;;;1.73;0.28;;;18.20;99.90;;;;;;5097360;28;20383;-75
2023/09/21 01:41:06;;;;;;;0.38;0.00;;;18.20;99.90;;;;;;5097385;28;20024;-74
2023/09/21 01:43:32;;;;;;;1.10;0.13;;;18.30;99.90;;;;;;5097121;28;20519;-74
2023/09/21 01:45:58;;;;;;;4.90;0.13;;;18.30;99.90;;;;;;5096055;28;20008;-74
2023/09/21 01:48:24;;;;;;;0.30;0.00;;;18.30;99.90;;;;;;5097151;28;20020;-74
2023/09/21 01:50:50;;;;;;;2.60;0.13;;;18.30;99.90;;;;;;5095697;28;20031;-74
2023/09/21 01:53:18;;;;;;;2.45;0.13;;;18.40;99.90;;;;;;5097732;28;20103;-74
2023/09/21 01:55:47;;;;;;;2.07;0.07;;;18.40;99.90;;;;;;5096819;28;20017;-74
2023/09/21 01:58:17;;;;;;;0.88;0.00;;;18.40;99.90;;;;;;5096989;28;20035;-74
2023/09/21 02:00:46;;;;;;;1.50;0.35;;;18.50;99.90;;;;;;5096802;28;20063;-74
2023/09/21 02:03:13;;;;;;;1.35;0.00;;;18.50;99.90;;;;;;5096463;28;20486;-74
2023/09/21 02:05:42;;;;;;;0.68;0.10;;;18.60;99.90;;;;;;5096771;28;20036;-74
2023/09/21 02:08:11;;;;;;;0.98;0.00;;;18.60;99.90;;;;;;5096861;28;20103;-74
2023/09/21 02:10:38;;;;;;;0.98;0.20;;;18.60;99.90;;;;;;5096656;28;20013;-74
2023/09/21 02:13:05;;;;;;;0.35;0.00;;;18.70;99.90;;;;;;5095488;28;20046;-74
2023/09/21 02:15:34;;;;;;;0.65;0.00;;;18.70;99.90;;;;;;5096503;28;20108;-74
2023/09/21 02:18:02;;;;;;;;;;;18.80;99.90;;;;;;5096733;28;20127;-74
2023/09/21 02:20:30;;;;;;;1.27;0.25;;;18.80;99.90;;;;;;5096456;28;19927;-75
2023/09/21 02:23:02;;;;;;;0.10;0.00;;;18.80;99.90;;;;;;5096270;28;20020;-75
2023/09/21 02:25:32;;;;;;;0.50;0.10;;;19.20;99.90;;;;;;5096283;28;20020;-75
2023/09/21 02:27:58;;;;;;;1.95;0.20;;;18.90;99.90;;;;;;5096328;28;20016;-75
2023/09/21 02:30:24;;;;;;;0.82;0.15;;;18.90;99.90;;;;;;5096159;28;20043;-75
2023/09/21 02:32:52;;;;;;;1.67;0.00;;;18.90;99.90;;;;;;5096263;28;20056;-75
2023/09/21 02:35:24;;;;;;;1.17;0.13;;;18.90;99.90;;;;;;5096114;28;20483;-75
2023/09/21 02:37:51;;;;;;;0.50;0.00;;;18.90;99.90;;;;;;5094588;28;20447;-75
2023/09/21 02:40:19;;;;;;;0.90;0.00;;;18.90;99.90;;;;;;5096092;28;20024;-75
2023/09/21 02:42:46;;;;;;;0.30;0.03;;;18.80;99.90;;;;;;5096189;28;20031;-75
2023/09/21 02:45:13;;;;;;;2.90;0.30;;;18.80;99.90;;;;;;5096092;28;20115;-75
2023/09/21 02:47:41;;;;;;;2.22;0.22;;;18.80;99.90;;;;;;5096248;28;20020;-75
2023/09/21 02:50:21;;;;;;;0.98;0.10;;;18.70;99.90;;;;;;5095898;28;20053;-75
2023/09/21 02:52:56;;;;;;;0.30;0.00;;;18.70;99.90;;;;;;5096011;28;20016;-75
2023/09/21 02:55:26;;;;;;;2.35;0.13;;;18.70;99.90;;;;;;5095724;28;20035;-74
2023/09/21 02:58:10;;;;;;;0.13;0.00;;;18.70;99.90;;;;;;5095699;28;20401;-74
2023/09/21 03:00:42;;;;;;;3.13;0.00;;;18.60;99.90;;;;;;5095917;28;20024;-75
2023/09/21 03:03:15;;;;;;;1.45;0.10;;;18.60;99.90;;;;;;5094546;28;20438;-74
2023/09/21 03:05:41;;;;;;;1.10;0.00;;;18.60;99.90;;;;;;5095742;28;20032;-74
2023/09/21 03:08:14;;;;;;;2.70;0.00;;;18.60;99.90;;;;;;5095765;28;20027;-74
2023/09/21 03:10:41;;;;;;;4.13;0.30;;;18.60;99.90;;;;;;5096298;28;20429;-74
2023/09/21 03:13:16;;;;;;;2.10;0.30;;;18.60;99.90;;;;;;5095524;28;20024;-74
2023/09/21 03:15:44;;;;;;;0.57;0.20;;;18.60;99.90;;;;;;5095516;28;20107;-74
2023/09/21 03:18:09;;;;;;;0.52;0.00;;;18.70;99.90;;;;;;5095450;28;20479;-74
2023/09/21 03:20:36;;;;;;;5.80;0.25;;;18.70;99.90;;;;;;5095424;28;20028;-74
2023/09/21 03:23:05;;;;;;;0.75;0.08;;;18.60;99.90;;;;;;5095671;28;20024;-74
2023/09/21 03:25:34;;;;;;;2.00;0.10;;;18.70;99.90;;;;;;5094998;28;20107;-74
2023/09/21 03:28:10;;;;;;;;;;;18.60;99.90;;;;;;5096059;28;20024;-73
2023/09/21 03:30:49;;;;;;;1.33;0.05;;;18.60;99.90;;;;;;5095334;28;19904;-73
2023/09/21 03:33:18;;;;;;;1.17;0.10;;;18.60;99.90;;;;;;5095418;28;20030;-73
2023/09/21 03:35:44;;;;;;;0.68;0.10;;;18.60;99.90;;;;;;5095188;28;20016;-73
2023/09/21 03:38:11;;;;;;;2.97;0.30;;;18.60;99.90;;;;;;5095637;28;20471;-73
2023/09/21 03:40:37;;;;;;;0.60;0.10;;;18.60;99.90;;;;;;5095677;28;20023;-73
2023/09/21 03:43:03;;;;;;;2.30;0.30;;;18.50;99.90;;;;;;5094989;28;20028;-73
2023/09/21 03:45:30;;;;;;;4.15;0.10;;;18.50;99.90;;;;;;5093311;28;20016;-73
2023/09/21 03:47:55;;;;;;;0.30;0.10;;;18.50;99.90;;;;;;5094153;28;20029;-73
2023/09/21 03:50:25;;;;;;;0.22;0.03;;;18.50;99.90;;;;;;5094730;28;20386;-73
2023/09/21 03:52:52;;;;;;;0.63;0.30;;;18.50;99.90;;;;;;5094801;28;20022;-73
2023/09/21 03:55:17;;;;;;;0.17;0.00;;;18.50;99.90;;;;;;5094887;28;20050;-74
2023/09/21 03:57:46;;;;;;;1.58;0.10;;;18.50;99.90;;;;;;5094950;28;20024;-73
2023/09/21 04:03:17;;;;;;;3.25;0.10;;;18.50;99.90;;;;;;5052141;28;20128;-73
2023/09/21 04:05:43;;;;;;;1.65;0.00;;;18.60;99.90;;;;;;5085520;28;20131;-74
2023/09/21 04:08:08;;;;;;;1.88;0.10;;;18.50;99.90;;;;;;5094991;28;20020;-73
2023/09/21 04:10:35;;;;;;;1.65;0.10;;;18.50;99.90;;;;;;5094394;28;20107;-73
2023/09/21 04:13:02;;;;;;;3.38;0.20;;;18.50;99.90;;;;;;5094223;28;20502;-73
2023/09/21 04:15:29;;;;;;;3.13;0.30;;;18.50;99.90;;;;;;5094497;28;20016;-74
2023/09/21 04:17:57;;;;;;;3.30;0.20;;;18.50;99.90;;;;;;5094224;28;20008;-73
2023/09/21 04:20:23;;;;;;;0.73;0.00;;;18.50;99.90;;;;;;5094314;28;20020;-73
2023/09/21 04:22:50;;;;;;;0.60;0.00;;;18.50;99.90;;;;;;5094159;28;20117;-73
2023/09/21 04:25:17;;;;;;;1.75;0.10;;;18.50;99.90;;;;;;5094064;28;20024;-73
2023/09/21 04:27:51;;;;;;;0.10;0.00;;;18.50;99.90;;;;;;5093892;28;20364;-73
2023/09/21 04:30:19;;;;;;;2.40;0.20;;;18.50;99.90;;;;;;5094514;28;20016;-73
2023/09/21 04:32:46;;;;;;;2.92;0.45;;;18.50;99.90;;;;;;5093984;28;20012;-73
2023/09/21 04:35:13;;;;;;;3.40;0.00;;;18.40;99.90;;;;;;5093860;28;20020;-73
2023/09/21 04:37:38;;;;;;;1.35;0.10;;;18.30;99.90;;;;;;5094016;28;20053;-73
2023/09/21 04:40:11;;;;;;;1.25;0.00;;;18.30;99.90;;;;;;5094071;28;20020;-73
2023/09/21 04:42:42;;;;;;;0.45;0.10;;;18.30;99.90;;;;;;5094421;28;20031;-73
2023/09/21 04:45:10;;;;;;;0.70;0.00;;;18.20;99.90;;;;;;5093792;28;20107;-74
2023/09/21 04:47:39;;;;;;;4.38;0.20;;;18.10;99.90;;;;;;5094151;28;20020;-73
2023/09/21 04:50:05;;;;;;;1.08;0.17;;;18.10;99.90;;;;;;5094391;28;20028;-73
2023/09/21 04:52:34;;;;;;;0.88;0.15;;;18.00;99.90;;;;;;5094433;28;20020;-74
2023/09/21 04:55:04;;;;;;;6.22;0.15;;;17.90;99.90;;;;;;5092228;28;20024;-73
2023/09/21 04:57:30;;;;;;;4.35;0.20;;;17.90;99.90;;;;;;5094244;28;20365;-73
2023/09/21 04:59:59;;;;;;;0.80;0.10;;;17.80;99.90;;;;;;5093529;28;20024;-73
2023/09/21 05:02:26;;;;;;;3.75;0.38;;;17.70;99.90;;;;;;5093849;28;20024;-73
2023/09/21 05:04:52;;;;;;;2.40;0.10;;;17.70;99.90;;;;;;5093103;28;20411;-73
2023/09/21 05:07:18;;;;;;;1.15;0.00;;;17.60;99.90;;;;;;5092344;28;20081;-73
2023/09/21 05:09:47;;;;;;;1.08;0.20;;;17.60;99.90;;;;;;5093516;28;20024;-73
2023/09/21 05:12:13;;;;;;;2.97;0.13;;;17.60;99.90;;;;;;5093630;28;20016;-73
2023/09/21 05:14:39;;;;;;;1.30;0.10;;;17.50;99.90;;;;;;5093470;28;20032;-73
2023/09/21 05:17:05;;;;;;;0.38;0.05;;;17.50;99.90;;;;;;5092341;28;20027;-73
2023/09/21 05:19:32;;;;;;;1.55;0.30;;;17.50;99.90;;;;;;5093584;28;20097;-73
2023/09/21 05:21:58;;;;;;;1.55;0.03;;;17.50;99.90;;;;;;5093618;28;20435;-73
2023/09/21 05:24:25;;;;;;;2.25;0.20;;;17.50;99.90;;;;;;5093333;28;20016;-73
2023/09/21 05:26:52;;;;;;;1.20;0.20;;;17.50;99.90;;;;;;5093353;28;20535;-73
2023/09/21 05:29:18;;;;;;;2.97;0.52;;;17.60;99.90;;;;;;5092116;28;20020;-73
2023/09/21 05:31:44;;;;;;;0.88;0.20;;;17.60;99.90;;;;;;5093439;28;20073;-73
2023/09/21 05:34:10;;;;;;;0.57;0.00;;;17.60;99.90;;;;;;5093750;28;20103;-73
2023/09/21 05:36:35;;;;;;;3.22;0.20;;;17.50;99.90;;;;;;5093436;28;20059;-73
2023/09/21 05:39:01;;;;;;;4.80;0.30;;;17.40;99.90;;;;;;5093180;28;20020;-73
2023/09/21 05:41:27;;;;;;;3.92;0.17;;;17.40;99.90;;;;;;5091959;28;20047;-73
2023/09/21 05:43:53;;;;;;;1.30;0.17;;;17.30;99.90;;;;;;5093183;28;20023;-73
2023/09/21 05:46:18;;;;;;;2.30;0.25;;;17.30;99.90;;;;;;5093109;28;20032;-72
2023/09/21 05:48:45;;;;;;;9.82;0.40;;;17.20;99.90;;;;;;5091910;28;20022;-72
2023/09/21 05:51:11;;;;;;;2.05;0.20;;;17.20;99.90;;;;;;5092941;28;20031;-72
2023/09/21 05:53:37;;;;;;;3.30;0.30;;;17.10;99.90;;;;;;5093062;28;20379;-72
2023/09/21 05:56:04;;;;;;;3.03;0.50;;;17.10;99.90;;;;;;5091550;28;20020;-72
2023/09/21 05:58:30;;;;;;;2.55;0.55;;;17.00;99.90;;;;;;5092918;28;20111;-72
2023/09/21 06:00:59;;;;;;;2.65;0.68;;;17.00;99.90;;;;;;5091650;28;20065;-72
2023/09/21 06:03:26;;;;;;;;;;;17.00;99.90;;;;;;5093524;28;20095;-72
2023/09/21 06:05:52;;;;;;;1.67;0.20;;;17.00;99.90;;;;;;5092554;28;19915;-72
2023/09/21 06:08:19;;;;;;;4.28;0.50;;;17.00;99.90;;;;;;5092614;28;20487;-72
2023/09/21 06:10:45;;;;;;;1.55;0.13;;;17.00;99.90;;;;;;5092769;28;20012;-72
2023/09/21 06:13:12;;;;;;;1.45;0.35;;;17.00;99.90;;;;;;5096192;28;20020;-72
2023/09/21 06:15:45;;;;;;;3.47;0.10;;;16.90;99.90;;;;;;5095700;28;20479;-72
2023/09/21 06:18:10;;;;;;;5.32;0.52;;;16.90;99.90;;;;;;5094266;28;20399;-72
2023/09/21 06:20:36;;;;;;;1.85;0.10;;;17.00;99.90;;;;;;5094711;28;20024;-72
2023/09/21 06:23:02;;;;;;;1.40;0.20;;;16.90;99.90;;;;;;5096291;28;20032;-72
2023/09/21 06:25:27;;;;;;;0.90;0.28;;;17.00;99.90;;;;;;5095010;28;20031;-72
2023/09/21 06:27:53;;;;;;;0.60;0.20;;;17.00;99.90;;;;;;5095996;28;20016;-72
2023/09/21 06:30:22;;;;;;;1.05;0.10;;;17.00;99.90;;;;;;5096145;28;20027;-72
2023/09/21 06:32:47;;;;;;;4.10;0.10;;;17.00;99.90;;;;;;5096024;28;20039;-72
2023/09/21 06:35:13;;;;;;;1.85;0.20;;;17.00;99.90;;;;;;5095871;28;20023;-72
2023/09/21 06:37:39;;;;;;;3.72;0.50;;;16.90;99.90;;;;;;5096145;28;20016;-72
2023/09/21 06:40:06;;;;;;;0.65;0.00;;;16.90;99.90;;;;;;5096031;28;20495;-72
2023/09/21 06:42:32;;;;;;;2.28;0.00;;;16.70;99.90;;;;;;5095989;28;20024;-72
2023/09/21 06:44:57;;;;;;;1.45;0.13;;;16.50;99.90;;;;;;5095760;28;20115;-72
2023/09/21 06:47:28;;;;;;;0.75;0.00;;;16.20;99.90;;;;;;5095972;28;20059;-72
2023/09/21 06:49:54;;;;;;;1.10;0.10;;;15.90;99.90;;;;;;5095783;28;20024;-72
2023/09/21 06:52:21;;;;;;;0.85;0.00;;;15.60;99.90;;;;;;5095789;28;20030;-72
2023/09/21 06:54:48;;;;;;;1.90;0.43;;;15.50;99.90;;;;;;5095635;28;20027;-72
2023/09/21 06:57:15;;;;;;;1.70;0.00;;;15.40;99.90;;;;;;5095641;28;20093;-72
2023/09/21 06:59:42;;;;;;;0.25;0.00;;;15.20;99.90;;;;;;5095683;28;20506;-72
2023/09/21 07:02:07;;;;;;;1.42;0.00;;;15.20;99.90;;;;;;5095498;28;20505;-72
2023/09/21 07:04:36;;;;;;;4.47;0.00;;;15.10;99.90;;;;;;5095295;28;20032;-72
2023/09/21 07:07:04;;;;;;;1.10;0.00;;;15.10;99.90;;;;;;5094235;28;20020;-72
2023/09/21 07:09:31;;;;;;;;;;;15.00;99.90;;;;;;5095871;28;20077;-72
2023/09/21 07:11:56;;;;;;;1.92;0.00;;;15.00;99.90;;;;;;5095347;28;19904;-72
2023/09/21 07:14:22;;;;;;;0.57;0.00;;;15.00;99.90;;;;;;5095223;28;20034;-72
2023/09/21 07:16:47;;;;;;;0.20;0.08;;;14.90;99.90;;;;;;5095288;28;20049;-72
2023/09/21 07:19:16;;;;;;;0.20;0.00;;;14.90;99.90;;;;;;5095155;28;20020;-72
2023/09/21 07:21:41;;;;;;;0.55;0.00;;;14.90;99.90;;;;;;5095248;28;20028;-72
2023/09/21 07:24:08;;;;;;;0.28;0.00;;;14.90;99.90;;;;;;5095044;28;20024;-72
2023/09/21 07:26:34;;;;;;;0.40;0.05;;;15.00;99.90;;;;;;5095072;28;20040;-72
2023/09/21 07:29:05;;;;;;;1.77;0.10;;;15.00;99.90;;;;;;5095185;28;20027;-72
2023/09/21 07:31:33;;;;;;;0.52;0.00;;;15.00;99.90;;;;;;5095019;28;20031;-72
2023/09/21 07:33:59;;;;;;;0.98;0.00;;;15.10;99.90;;;;;;5093712;28;20020;-72
2023/09/21 07:36:25;;;;;;;0.98;0.00;;;15.10;99.90;;;;;;5095021;28;20030;-72
2023/09/21 07:38:53;;;;;;;0.22;0.03;;;15.10;99.90;;;;;;5094824;28;20020;-72
2023/09/21 07:41:19;;;;;;;0.40;0.00;;;15.10;99.90;;;;;;5094939;28;20020;-72
2023/09/21 07:43:45;;;;;;;0.77;0.00;;;15.00;99.90;;;;;;5093430;28;20047;-72
2023/09/21 07:46:11;;;;;;;0.47;0.00;;;15.00;99.90;;;;;;5094563;28;20479;-72
2023/09/21 07:48:36;;;;;;;1.55;0.00;;;15.10;99.90;;;;;;5094604;28;20102;-72
2023/09/21 07:51:06;;;;;;;0.73;0.00;;;15.10;99.90;;;;;;5095138;28;20016;-72
2023/09/21 07:53:32;;;;;;;0.77;0.00;;;15.20;99.90;;;;;;5094626;28;20027;-72
2023/09/21 07:56:04;;;;;;;0.30;0.10;;;15.20;99.90;;;;;;5094414;28;20032;-72
2023/09/21 07:58:30;;;;;;;2.10;0.00;;;15.30;99.90;;;;;;5094368;28;20070;-72
2023/09/21 08:00:55;;;;;;;0.52;0.00;;;15.40;99.90;;;;;;5094447;28;20448;-72
2023/09/21 08:03:25;;;;;;;1.83;0.00;;;15.50;99.90;;;;;;5092941;28;20509;-72
2023/09/21 08:05:51;;;;;;;0.55;0.00;;;15.50;99.90;;;;;;5094278;28;20402;-72
2023/09/21 08:08:16;;;;;;;0.63;0.00;;;15.60;99.90;;;;;;5094251;28;20020;-72
2023/09/21 08:10:42;;;;;;;1.55;0.00;;;15.70;99.90;;;;;;5094203;28;20027;-72
2023/09/21 08:13:08;;;;;;;0.80;0.00;;;15.70;99.90;;;;;;5094202;28;20024;-72
2023/09/21 08:15:33;;;;;;;0.75;0.00;;;15.80;99.90;;;;;;5094081;28;20110;-72
2023/09/21 08:18:00;;;;;;;1.75;0.10;;;15.80;99.90;;;;;;5094699;28;20349;-72
2023/09/21 08:20:26;;;;;;;0.32;0.00;;;15.80;99.90;;;;;;5094081;28;20031;-72
2023/09/21 08:22:52;;;;;;;0.95;0.00;;;15.80;99.90;;;;;;5095021;28;20024;-72
2023/09/21 08:25:17;;;;;;;0.20;0.00;;;15.80;99.90;;;;;;5093842;28;20024;-72
2023/09/21 08:27:43;;;;;;;1.38;0.00;;;15.80;99.90;;;;;;5093920;28;20091;-72
2023/09/21 08:30:09;;;;;;;1.25;0.00;;;15.80;99.90;;;;;;5093834;28;20103;-72
2023/09/21 08:32:35;;;;;;;1.55;0.00;;;15.80;99.90;;;;;;5093829;28;20114;-72
2023/09/21 08:35:00;;;;;;;0.82;0.05;;;15.80;99.90;;;;;;5093341;28;20039;-72
2023/09/21 08:37:26;;;;;;;0.40;0.00;;;15.80;99.90;;;;;;5093908;28;20046;-72
2023/09/21 08:39:51;;;;;;;1.50;0.00;;;15.80;99.90;;;;;;5093700;28;20028;-72
2023/09/21 08:42:17;;;;;;;2.45;0.00;;;15.80;99.90;;;;;;5093774;28;20031;-72
2023/09/21 08:44:44;;;;;;;3.72;0.25;;;15.80;99.90;;;;;;5092225;28;20024;-72
2023/09/21 08:47:14;;;;;;;1.48;0.00;;;15.80;99.90;;;;;;5093608;28;20103;-72
2023/09/21 08:49:45;;;;;;;0.43;0.00;;;15.80;99.90;;;;;;5093583;28;20128;-72
2023/09/21 08:52:13;;;;;;;0.88;0.05;;;15.80;99.90;;;;;;5093586;28;20031;-72
2023/09/21 08:54:46;;;;;;;0.52;0.00;;;15.80;99.90;;;;;;5092198;28;20020;-72
2023/09/21 08:57:13;;;;;;;2.80;0.10;;;15.90;99.90;;;;;;5093527;28;20027;-72
2023/09/21 08:59:42;;;;;;;0.95;0.32;;;15.90;99.90;;;;;;5093405;28;20027;-72
2023/09/21 09:02:12;;;;;;;0.75;0.00;;;15.90;99.90;;;;;;5093468;28;20056;-72
2023/09/21 09:04:42;;;;;;;1.13;0.00;;;15.90;99.90;;;;;;5093414;28;20028;-72
2023/09/21 09:07:08;;;;;;;0.08;0.00;;;15.90;99.90;;;;;;5093392;28;20024;-72
2023/09/21 09:09:35;;;;;;;1.85;0.20;;;16.00;99.90;;;;;;5093386;28;20019;-72
2023/09/21 09:12:01;;;;;;;2.05;0.05;;;16.00;99.90;;;;;;5093384;28;20539;-72
2023/09/21 09:14:26;;;;;;;0.22;0.00;;;16.10;99.90;;;;;;5092135;28;20122;-72
2023/09/21 09:16:52;;;;;;;0.73;0.00;;;16.10;99.90;;;;;;5093323;28;20021;-72
2023/09/21 09:19:18;;;;;;;0.60;0.00;;;16.10;99.90;;;;;;5093304;28;20056;-72
2023/09/21 09:21:48;;;;;;;1.38;0.17;;;16.10;99.90;;;;;;5093203;28;20032;-72
2023/09/21 09:24:14;;;;;;;0.65;0.00;;;16.00;99.90;;;;;;5093064;28;20395;-72
2023/09/21 09:26:40;;;;;;;2.00;0.00;;;16.10;99.90;;;;;;5093131;28;20066;-71
2023/09/21 09:29:11;;;;;;;0.10;0.00;;;16.10;99.90;;;;;;5093264;28;20483;-72
2023/09/21 09:31:40;;;;;;;2.05;0.25;;;16.00;99.90;;;;;;5093794;28;20424;-72
2023/09/21 09:34:06;;;;;;;0.80;0.00;;;16.00;99.90;;;;;;5093785;28;20020;-72
2023/09/21 09:36:32;;;;;;;0.88;0.25;;;16.00;99.90;;;;;;5093153;28;20020;-72
2023/09/21 09:39:00;;;;;;;1.13;0.10;;;16.00;99.90;;;;;;5093198;28;20027;-72
2023/09/21 09:41:27;;;;;;;1.30;0.00;;;16.00;99.90;;;;;;5093110;28;20055;-72
2023/09/21 09:43:56;;;;;;;0.63;0.00;;;16.00;99.90;;;;;;5092948;28;20471;-72
2023/09/21 09:46:25;;;;;;;2.83;0.30;;;16.00;99.90;;;;;;5093604;28;20024;-72
2023/09/21 09:48:51;;;;;;;1.92;0.00;;;16.10;99.90;;;;;;5096943;28;20016;-72
2023/09/21 09:51:25;;;;;;;0.45;0.10;;;16.10;99.90;;;;;;5096983;28;20019;-72
2023/09/21 09:53:53;;;;;;;2.75;0.00;;;16.10;99.90;;;;;;5096769;28;20372;-72
2023/09/21 09:56:19;;;;;;;4.07;0.30;;;16.00;99.90;;;;;;5095738;28;20028;-72
2023/09/21 09:58:47;;;;;;;0.75;0.00;;;16.00;99.90;;;;;;5096692;28;20020;-72
2023/09/21 10:01:14;;;;;;;0.73;0.00;;;16.00;99.90;;;;;;5096726;28;20095;-72
2023/09/21 10:03:43;;;;;;;0.28;0.00;;;15.90;99.90;;;;;;5096496;28;20024;-72
2023/09/21 10:06:09;;;;;;;0.30;0.00;;;15.90;99.90;;;;;;5096543;28;20023;-72
2023/09/21 10:08:39;;;;;;;2.40;0.17;;;15.70;99.90;;;;;;5097186;28;20052;-72
2023/09/21 10:11:09;;;;;;;2.78;0.00;;;15.70;99.90;;;;;;5095370;28;20021;-72
2023/09/21 10:13:47;;;;;;;1.13;0.00;;;15.60;99.90;;;;;;5095211;28;20016;-72
2023/09/21 10:16:13;;;;;;;1.05;0.00;;;15.60;99.90;;;;;;5096485;28;20086;-72
2023/09/21 10:18:40;;;;;;;2.42;0.15;;;15.60;99.90;;;;;;5096344;28;20028;-72
2023/09/21 10:21:31;;;;;;;2.22;0.00;;;15.50;99.90;;;;;;5096334;28;20377;-72
2023/09/21 10:24:18;;;;;;;0.17;0.10;;;15.40;99.90;;;;;;5096227;28;20031;-72
2023/09/21 10:26:56;;;;;;;3.42;0.00;;;15.40;99.90;;;;;;5096826;28;20023;-72
2023/09/21 10:29:32;;;;;;;0.63;0.00;;;15.50;99.90;;;;;;5096468;28;20012;-72
2023/09/21 10:32:01;;;;;;;2.88;0.10;;;15.50;99.90;;;;;;5096790;28;20074;-72
2023/09/21 10:34:26;;;;;;;;;;;15.60;99.90;;;;;;5096483;28;20032;-72
2023/09/21 10:36:58;;;;;;;1.98;0.00;;;15.60;99.90;;;;;;5096030;28;19929;-72
2023/09/21 10:39:29;;;;;;;1.35;0.00;;;15.60;99.90;;;;;;5096037;28;20055;-72
2023/09/21 10:42:20;;;;;;;0.20;0.00;;;15.70;99.90;;;;;;5095940;28;20035;-72
2023/09/21 10:45:03;;;;;;;2.08;0.20;;;15.60;99.90;;;;;;5085021;28;20047;-72
2023/09/21 10:47:33;;;;;;;0.05;0.00;;;15.60;99.90;;;;;;5095859;28;20078;-72
2023/09/21 10:50:02;;;;;;;0.68;0.00;;;15.60;99.90;;;;;;5095852;28;20016;-72
2023/09/21 10:52:28;;;;;;;1.08;0.00;;;15.80;99.90;;;;;;5095814;28;20017;-72
2023/09/21 10:54:55;;;;;;;0.73;0.00;;;15.80;99.90;;;;;;5095693;28;20423;-72
2023/09/21 10:57:26;;;;;;;1.85;0.00;;;15.80;99.90;;;;;;5094071;28;20428;-72
2023/09/21 10:59:53;;;;;;;1.48;0.10;;;15.70;99.90;;;;;;5095646;28;20035;-72
2023/09/21 11:02:21;;;;;;;0.10;0.00;;;15.70;99.90;;;;;;5095582;28;20441;-72
2023/09/21 11:04:48;;;;;;;0.32;0.00;;;15.80;99.90;;;;;;5095348;28;20105;-72
2023/09/21 11:07:15;;;;;;;3.42;0.43;;;15.90;99.90;;;;;;5095511;28;20027;-72
2023/09/21 11:09:43;;;;;;;0.68;0.00;;;16.00;99.90;;;;;;5095489;28;20016;-72
2023/09/21 11:12:13;;;;;;;0.20;0.00;;;16.00;99.90;;;;;;5095368;28;20479;-72
2023/09/21 11:14:41;;;;;;;0.00;0.00;;;16.10;99.90;;;;;;5095298;28;20020;-72
2023/09/21 11:17:07;;;;;;;0.75;0.10;;;16.20;99.90;;;;;;5095330;28;20028;-72
2023/09/21 11:19:33;;;;;;;0.88;0.00;;;16.20;99.90;;;;;;5095254;28;20046;-72
2023/09/21 11:22:01;;;;;;;0.98;0.10;;;16.10;99.90;;;;;;5095321;28;20020;-72
2023/09/21 11:24:27;;;;;;;0.52;0.00;;;16.10;99.90;;;;;;5095724;28;20020;-72
2023/09/21 11:26:54;;;;;;;0.00;0.00;;;16.00;99.90;;;;;;5093860;28;20024;-72
2023/09/21 11:29:20;;;;;;;0.43;0.20;;;16.00;99.90;;;;;;5095207;28;20045;-72
2023/09/21 11:31:52;;;;;;;0.20;0.00;;;16.10;99.90;;;;;;5095010;28;20099;-72
2023/09/21 11:34:18;;;;;;;0.47;0.00;;;16.20;99.90;;;;;;5094817;28;20016;-72
2023/09/21 11:36:44;;;;;;;0.00;0.00;;;16.20;99.90;;;;;;5094963;28;20028;-72
2023/09/21 11:39:11;;;;;;;0.63;0.13;;;16.30;99.90;;;;;;5094823;28;20031;-72
2023/09/21 11:41:39;;;;;;;2.35;0.00;;;16.20;99.90;;;;;;5095464;28;20036;-72
2023/09/21 11:44:06;;;;;;;0.32;0.00;;;16.20;99.90;;;;;;5094517;28;20425;-72
2023/09/21 11:46:32;;;;;;;2.22;0.00;;;16.20;99.90;;;;;;5094724;28;20395;-72
2023/09/21 11:48:58;;;;;;;2.47;0.00;;;16.30;99.90;;;;;;5093415;28;20023;-72
2023/09/21 11:51:29;;;;;;;0.25;0.00;;;16.30;99.90;;;;;;5094575;28;20056;-72
2023/09/21 11:53:57;;;;;;;0.43;0.10;;;16.30;99.90;;;;;;5094636;28;20103;-72
2023/09/21 11:56:24;;;;;;;1.15;0.00;;;16.30;99.90;;;;;;5094971;28;20044;-72
2023/09/21 11:58:49;;;;;;;0.75;0.00;;;16.30;99.90;;;;;;5094402;28;20020;-72
2023/09/21 12:01:19;;;;;;;0.08;0.00;;;16.30;99.90;;;;;;5094440;28;20024;-72
2023/09/21 12:03:46;;;;;;;3.10;0.08;;;16.30;99.90;;;;;;5093021;28;20097;-72
2023/09/21 12:06:12;;;;;;;1.27;0.00;;;16.30;99.90;;;;;;5094277;28;20012;-72
2023/09/21 12:08:38;;;;;;;1.38;0.00;;;16.30;99.90;;;;;;5094018;28;20099;-72
2023/09/21 12:11:04;;;;;;;0.30;0.00;;;16.40;99.90;;;;;;5093859;28;20016;-72
2023/09/21 12:13:30;;;;;;;0.00;0.00;;;16.40;99.90;;;;;;5094329;28;20024;-72
2023/09/21 12:15:55;;;;;;;0.30;0.00;;;16.40;99.90;;;;;;5094050;28;20085;-72
2023/09/21 12:18:22;;;;;;;1.38;0.00;;;16.40;99.90;;;;;;5094082;28;20020;-72
2023/09/21 12:20:56;;;;;;;0.00;0.00;;;16.40;99.90;;;;;;5094220;28;20103;-72
2023/09/21 12:23:22;;;;;;;1.00;0.00;;;16.40;99.90;;;;;;5094289;28;20027;-72
2023/09/21 12:25:48;;;;;;;0.30;0.00;;;16.40;99.90;;;;;;5093794;28;20024;-72
2023/09/21 12:28:14;;;;;;;0.00;0.00;;;16.30;99.90;;;;;;5094011;28;20126;-72
2023/09/21 12:30:44;;;;;;;2.08;0.25;;;16.30;99.90;;;;;;5094385;28;20073;-72
2023/09/21 12:33:15;;;;;;;2.08;0.20;;;16.30;99.90;;;;;;5094147;28;20017;-72
2023/09/21 12:35:43;;;;;;;0.00;0.00;;;16.30;99.90;;;;;;5093775;28;20028;-72
2023/09/21 12:38:12;;;;;;;0.40;0.00;;;16.30;99.90;;;;;;5093846;28;20456;-72
2023/09/21 12:40:38;;;;;;;0.10;0.00;;;16.30;99.90;;;;;;5093732;28;20024;-72
2023/09/21 12:43:05;;;;;;;0.00;0.00;;;16.30;99.90;;;;;;5093708;28;20031;-72
2023/09/21 12:45:32;;;;;;;0.10;0.00;;;16.40;99.90;;;;;;5094079;28;20065;-72
2023/09/21 12:48:02;;;;;;;0.10;0.00;;;16.40;99.90;;;;;;5093598;28;20026;-72
2023/09/21 12:50:28;;;;;;;1.83;0.00;;;16.50;99.90;;;;;;5093637;28;20103;-72
2023/09/21 12:52:54;;;;;;;0.52;0.00;;;16.60;99.90;;;;;;5092417;28;20035;-72
2023/09/21 12:55:21;;;;;;;0.00;0.00;;;16.70;99.90;;;;;;5092263;28;20031;-72